createdAt,value
2023-04-17T00:02:20.424Z,100711.71
2023-04-17T00:04:53.445Z,100710.29
2023-04-17T00:07:25.038Z,100702.88
2023-04-17T00:09:56.674Z,100702.77
2023-04-17T00:12:26.639Z,100702.48
2023-04-17T00:14:57.612Z,100705.23
2023-04-17T00:17:27.936Z,100705.48
2023-04-17T00:19:58.667Z,100709.73
2023-04-17T00:22:29.575Z,100713.35
2023-04-17T00:25:01.069Z,100713.90
2023-04-17T00:27:32.789Z,100715.02
2023-04-17T00:30:05.928Z,100714.81
2023-04-17T00:32:38.281Z,100711.24
2023-04-17T00:35:10.833Z,100709.82
2023-04-17T00:37:41.870Z,100715.41
2023-04-17T00:40:13.015Z,100717.21
2023-04-17T00:42:44.310Z,100713.14
2023-04-17T00:45:14.806Z,100713.83
2023-04-17T00:47:46.416Z,100718.66
2023-04-17T00:50:17.699Z,100717.23
2023-04-17T00:52:52.038Z,100720.21
2023-04-17T00:55:29.302Z,100719.09
2023-04-17T00:58:03.593Z,100717.67
2023-04-17T01:00:40.053Z,100721.93
2023-04-17T01:03:17.691Z,100724.88
2023-04-17T01:06:00.114Z,100725.55
2023-04-17T01:08:43.190Z,100728.52
2023-04-17T01:11:15.571Z,100730.71
2023-04-17T01:13:52.168Z,100729.51
2023-04-17T01:16:26.589Z,100730.41
2023-04-17T01:19:02.676Z,100733.09
2023-04-17T01:21:40.741Z,100734.77
2023-04-17T01:24:24.804Z,100736.02
2023-04-17T01:27:06.341Z,100738.69
2023-04-17T01:29:49.133Z,100733.78
2023-04-17T01:32:32.142Z,100727.25
2023-04-17T01:35:14.262Z,100730.88
2023-04-17T01:37:46.849Z,100731.67
2023-04-17T01:40:19.135Z,100733.41
2023-04-17T01:42:51.578Z,100733.30
2023-04-17T01:45:23.533Z,100728.66
2023-04-17T01:47:54.874Z,100727.55
2023-04-17T01:50:24.863Z,100729.00
2023-04-17T01:52:56.221Z,100726.92
2023-04-17T01:55:28.116Z,100726.83
2023-04-17T01:57:59.330Z,100727.44
2023-04-17T02:00:30.593Z,100726.30
2023-04-17T02:03:02.687Z,100730.67
2023-04-17T02:05:32.978Z,100729.41
2023-04-17T02:08:03.289Z,100730.08
2023-04-17T02:10:33.457Z,100731.04
2023-04-17T02:13:07.712Z,100732.54
2023-04-17T02:15:39.129Z,100736.86
2023-04-17T02:18:09.850Z,100735.69
2023-04-17T02:20:40.587Z,100734.16
2023-04-17T02:23:17.388Z,100736.65
2023-04-17T02:25:54.405Z,100741.02
2023-04-17T02:28:28.436Z,100738.25
2023-04-17T02:31:03.248Z,100737.20
2023-04-17T02:33:35.256Z,100742.73
2023-04-17T02:36:08.646Z,100745.23
2023-04-17T02:38:40.111Z,100745.11
2023-04-17T02:41:10.906Z,100744.08
2023-04-17T02:43:40.676Z,100746.20
2023-04-17T02:46:10.113Z,100745.94
2023-04-17T02:48:39.720Z,100743.94
2023-04-17T02:51:09.096Z,100745.37
2023-04-17T02:53:39.078Z,100746.83
2023-04-17T02:56:12.584Z,100748.36
2023-04-17T02:58:46.806Z,100747.98
2023-04-17T03:01:20.502Z,100747.95
2023-04-17T03:03:55.334Z,100744.67
2023-04-17T03:06:29.320Z,100750.23
2023-04-17T03:09:02.739Z,100755.50
2023-04-17T03:11:36.110Z,100758.28
2023-04-17T03:14:10.756Z,100759.33
2023-04-17T03:16:45.487Z,100760.98
2023-04-17T03:19:19.390Z,100762.83
2023-04-17T03:21:53.942Z,100762.66
2023-04-17T03:24:28.234Z,100757.44
2023-04-17T03:27:01.672Z,100754.05
2023-04-17T03:29:35.361Z,100758.27
2023-04-17T03:32:09.848Z,100760.55
2023-04-17T03:34:45.360Z,100759.81
2023-04-17T03:37:19.322Z,100764.92
2023-04-17T03:39:53.133Z,100766.48
2023-04-17T03:42:31.219Z,100771.94
2023-04-17T03:45:22.035Z,100774.80
2023-04-17T03:48:06.593Z,100771.70
2023-04-17T03:50:50.388Z,100775.89
2023-04-17T03:53:28.652Z,100781.50
2023-04-17T03:56:06.161Z,100782.67
2023-04-17T03:58:48.430Z,100786.83
2023-04-17T04:01:31.373Z,100792.50
2023-04-17T04:04:09.958Z,100789.71
2023-04-17T04:06:44.500Z,100792.69
2023-04-17T04:09:20.252Z,100793.80
2023-04-17T04:44:27.886Z,100826.33
2023-04-17T04:46:57.486Z,100825.57
2023-04-17T04:49:27.313Z,100828.33
2023-04-17T04:51:57.774Z,100826.42
2023-04-17T04:54:27.988Z,100826.46
2023-04-17T04:56:58.199Z,100826.48
2023-04-17T04:59:28.392Z,100827.55
2023-04-17T05:01:59.159Z,100827.24
2023-04-17T05:04:30.111Z,100829.67
2023-04-17T05:07:00.390Z,100832.09
2023-04-17T05:09:34.502Z,100835.42
2023-04-17T05:12:07.573Z,100835.83
2023-04-17T05:14:40.157Z,100838.21
2023-04-17T05:17:15.659Z,100840.39
2023-04-17T05:19:49.903Z,100840.98
2023-04-17T05:22:25.219Z,100837.79
2023-04-17T05:24:59.640Z,100840.65
2023-04-17T05:27:34.189Z,100843.27
2023-04-17T05:30:08.648Z,100842.98
2023-04-17T05:32:43.852Z,100840.50
2023-04-17T05:35:20.590Z,100841.02
2023-04-17T05:37:59.299Z,100844.48
2023-04-17T05:40:34.816Z,100848.60
2023-04-17T05:43:12.898Z,100848.95
2023-04-17T05:45:49.446Z,100851.20
2023-04-17T05:48:25.431Z,100853.04
2023-04-17T05:50:59.904Z,100853.32
2023-04-17T05:53:35.124Z,100858.59
2023-04-17T05:56:11.710Z,100859.04
2023-04-17T05:58:45.722Z,100861.94
2023-04-17T06:02:11.713Z,100859.41
2023-04-17T06:05:01.359Z,100856.41
2023-04-17T06:07:41.799Z,100857.44
2023-04-17T06:10:19.537Z,100858.80
2023-04-17T06:12:53.491Z,100860.16
2023-04-17T06:15:26.558Z,100860.94
2023-04-17T06:17:58.209Z,100864.17
2023-04-17T06:20:29.524Z,100867.60
2023-04-17T06:23:07.298Z,100865.77
2023-04-17T06:25:53.162Z,100866.46
2023-04-17T06:36:49.518Z,100864.95
2023-04-17T06:39:57.106Z,100867.59
2023-04-17T06:42:35.942Z,100870.71
2023-04-17T06:45:11.808Z,100875.01
2023-04-17T06:47:48.142Z,100875.77
2023-04-17T06:50:17.940Z,100874.98
2023-04-17T06:52:46.796Z,100876.66
2023-04-17T06:55:16.056Z,100873.50
2023-04-17T06:57:45.877Z,100876.13
2023-04-17T07:00:16.600Z,100874.37
2023-04-17T07:02:54.451Z,100875.62
2023-04-17T07:05:25.173Z,100879.01
2023-04-17T07:07:55.732Z,100880.70
2023-04-17T07:10:24.660Z,100887.11
2023-04-17T07:12:53.855Z,100888.70
2023-04-17T07:15:23.297Z,100891.30
2023-04-17T07:17:55.906Z,100892.45
2023-04-17T07:20:25.234Z,100891.75
2023-04-17T07:22:56.047Z,100892.55
2023-04-17T07:25:27.402Z,100894.79
2023-04-17T07:27:57.251Z,100898.55
2023-04-17T07:30:26.453Z,100902.79
2023-04-17T07:32:55.051Z,100906.52
2023-04-17T07:35:24.073Z,100910.61
2023-04-17T07:37:58.500Z,100908.56
2023-04-17T07:40:27.679Z,100917.77
2023-04-17T07:43:00.295Z,100918.25
2023-04-17T07:45:29.593Z,100913.92
2023-04-17T07:47:59.520Z,100917.05
2023-04-17T07:50:28.740Z,100920.27
2023-04-17T07:52:58.683Z,100920.37
2023-04-17T07:55:27.964Z,100922.89
2023-04-17T07:57:59.125Z,100921.20
2023-04-17T08:00:28.008Z,100917.54
2023-04-17T08:02:59.318Z,100921.18
2023-04-17T08:05:30.197Z,100923.45
2023-04-17T08:08:00.819Z,100921.89
2023-04-17T08:10:31.018Z,100923.34
2023-04-17T08:13:02.840Z,100930.65
2023-04-17T08:15:32.936Z,100929.79
2023-04-17T08:18:03.622Z,100930.46
2023-04-17T08:20:34.643Z,100931.73
2023-04-17T08:23:06.859Z,100933.06
2023-04-17T08:25:36.675Z,100935.34
2023-04-17T08:28:07.687Z,100936.86
2023-04-17T08:30:37.357Z,100931.70
2023-04-17T08:33:08.826Z,100932.68
2023-04-17T08:35:45.097Z,100938.45
2023-04-17T08:38:15.413Z,100939.66
2023-04-17T08:40:49.309Z,100942.30
2023-04-17T08:43:21.640Z,100941.20
2023-04-17T08:45:54.370Z,100948.02
2023-04-17T08:48:24.794Z,100948.39
2023-04-17T08:50:57.865Z,100949.77
2023-04-17T08:53:45.596Z,100949.06
2023-04-17T08:56:14.364Z,100945.81
2023-04-17T08:58:43.847Z,100951.06
2023-04-17T09:01:18.577Z,100953.04
2023-04-17T09:03:53.034Z,100957.20
2023-04-17T09:06:24.640Z,100957.20
2023-04-17T09:09:05.555Z,100961.55
2023-04-17T09:11:37.535Z,100963.16
2023-04-17T09:14:08.239Z,100962.80
2023-04-17T09:16:55.349Z,100962.69
2023-04-17T09:19:25.773Z,100962.84
2023-04-17T09:21:57.334Z,100962.97
2023-04-17T09:24:39.713Z,100961.27
2023-04-17T09:27:23.361Z,100966.69
2023-04-17T09:30:00.216Z,100968.98
2023-04-17T09:32:32.748Z,100964.64
2023-04-17T09:35:15.801Z,100961.35
2023-04-17T09:38:10.006Z,100959.44
2023-04-17T09:40:56.491Z,100963.03
2023-04-17T09:43:54.279Z,100962.91
2023-04-17T09:46:41.479Z,100959.52
2023-04-17T09:49:24.562Z,100959.71
2023-04-17T09:52:06.800Z,100960.42
2023-04-17T09:54:57.198Z,100963.15
2023-04-17T09:57:44.509Z,100962.30
2023-04-17T10:00:33.983Z,100963.48
2023-04-17T10:03:23.119Z,100963.58
2023-04-17T10:06:14.408Z,100961.70
2023-04-17T10:08:57.356Z,100962.70
2023-04-17T10:11:54.807Z,100961.95
2023-04-17T10:14:46.260Z,100961.33
2023-04-17T10:17:47.415Z,100963.66
2023-04-17T10:20:36.150Z,100963.80
2023-04-17T10:23:58.218Z,100959.58
2023-04-17T10:26:46.427Z,100953.42
2023-04-17T10:30:27.944Z,100961.15
2023-04-17T10:33:33.140Z,100956.80
2023-04-17T10:36:40.448Z,100958.80
2023-04-17T10:39:16.387Z,100954.21
2023-04-17T10:42:07.195Z,100953.19
2023-04-17T10:44:42.313Z,100952.64
2023-04-17T10:47:28.118Z,100950.41
2023-04-17T10:53:50.379Z,100937.86
2023-04-17T10:56:46.805Z,100942.19
2023-04-17T10:59:39.122Z,100940.46
2023-04-17T11:03:39.512Z,100940.44
2023-04-17T11:14:29.248Z,100936.13
2023-04-17T11:18:09.528Z,100940.06
2023-04-17T11:21:40.107Z,100940.00
2023-04-17T11:24:56.952Z,100943.05
2023-04-17T11:27:57.141Z,100945.64
2023-04-17T11:30:38.240Z,100946.19
2023-04-17T11:33:09.518Z,100948.60
2023-04-17T11:35:40.335Z,100947.96
2023-04-17T11:38:13.256Z,100947.86
2023-04-17T11:40:46.769Z,100951.90
2023-04-17T11:43:17.034Z,100950.86
2023-04-17T11:45:47.662Z,100949.60
2023-04-17T11:48:20.149Z,100953.51
2023-04-17T11:50:48.780Z,100951.56
2023-04-17T11:53:18.753Z,100951.06
2023-04-17T11:55:48.221Z,100950.86
2023-04-17T11:58:17.001Z,100954.14
2023-04-17T12:01:45.115Z,100954.73
2023-04-17T12:40:18.736Z,100956.95
2023-04-17T15:46:17.662Z,100966.74
2023-04-17T15:49:21.682Z,100971.41
2023-04-17T15:56:49.000Z,100973.33
2023-04-17T16:21:32.285Z,100984.27
2023-04-17T16:24:57.638Z,100987.49
2023-04-17T16:27:52.605Z,100987.20
2023-04-17T16:30:37.270Z,100991.84
2023-04-17T16:33:43.854Z,100992.80
2023-04-17T16:36:32.816Z,100994.52
2023-04-17T16:39:53.570Z,100995.90
2023-04-17T16:43:48.153Z,100997.33
2023-04-17T16:54:25.904Z,101008.54
2023-04-17T16:56:59.533Z,101009.61
2023-04-17T16:59:30.853Z,101010.41
2023-04-17T17:02:02.533Z,101013.89
2023-04-17T17:11:59.572Z,101022.70
2023-04-17T17:19:31.013Z,101035.92
2023-04-17T17:22:37.765Z,101040.46
2023-04-17T17:29:17.483Z,101048.46
2023-04-17T17:32:02.345Z,101050.34
2023-04-17T17:34:52.579Z,101049.14
2023-04-17T19:52:56.643Z,101101.70
2023-04-17T20:00:20.232Z,101102.65
2023-04-17T20:04:05.564Z,101102.94
2023-04-17T20:12:03.259Z,101105.12
2023-04-17T21:01:56.026Z,101122.93
2023-04-17T21:16:12.268Z,101127.73
2023-04-17T21:23:11.734Z,101132.46
2023-04-17T21:31:09.741Z,101138.89
2023-04-17T21:56:26.198Z,101134.52
2023-04-17T22:01:05.814Z,101136.98
2023-04-17T22:07:34.198Z,101134.43
2023-04-17T22:11:23.261Z,101132.34
2023-04-17T22:16:34.689Z,101136.83
2023-04-17T22:39:17.789Z,101141.70
2023-04-17T22:42:49.471Z,101142.58
2023-04-17T22:46:17.892Z,101143.18
2023-04-17T22:50:03.362Z,101146.66
2023-04-17T23:58:45.232Z,101125.61
